createdAt,value
2023-02-12T00:00:52.051Z,70.46
2023-02-12T00:03:19.189Z,72.02
2023-02-12T00:05:46.298Z,72.98
2023-02-12T00:08:14.256Z,70.50
2023-02-12T00:10:43.285Z,70.13
2023-02-12T00:13:11.913Z,69.87
2023-02-12T00:15:42.955Z,69.78
2023-02-12T00:18:10.514Z,68.68
2023-02-12T00:20:38.356Z,69.00
2023-02-12T00:23:06.389Z,69.03
2023-02-12T00:25:34.200Z,69.96
2023-02-12T00:28:01.295Z,70.24
2023-02-12T00:30:28.450Z,69.86
2023-02-12T00:32:55.758Z,68.92
2023-02-12T00:35:22.873Z,68.46
2023-02-12T00:37:50.789Z,68.19
2023-02-12T00:40:18.091Z,69.06
2023-02-12T00:42:45.151Z,69.76
2023-02-12T00:45:12.288Z,70.52
2023-02-12T00:47:39.404Z,69.83
2023-02-12T00:50:07.259Z,69.36
2023-02-12T00:52:34.343Z,69.09
2023-02-12T00:55:01.526Z,69.73
2023-02-12T00:57:28.697Z,70.12
2023-02-12T00:59:56.964Z,70.47
2023-02-12T01:02:24.258Z,71.19
2023-02-12T01:04:51.662Z,70.74
2023-02-12T01:07:18.783Z,70.60
2023-02-12T01:09:46.137Z,70.88
2023-02-12T01:12:13.333Z,71.68
2023-02-12T01:14:40.424Z,70.89
2023-02-12T01:17:09.642Z,70.85
2023-02-12T01:19:36.847Z,71.04
2023-02-12T01:22:04.008Z,71.84
2023-02-12T01:24:31.162Z,72.03
2023-02-12T01:26:58.939Z,71.24
2023-02-12T01:29:26.069Z,71.68
2023-02-12T01:31:53.258Z,71.43
2023-02-12T01:34:20.463Z,71.31
2023-02-12T01:36:47.582Z,71.38
2023-02-12T01:39:14.698Z,71.28
2023-02-12T01:41:44.702Z,71.39
2023-02-12T01:44:22.011Z,72.01
2023-02-12T01:46:55.709Z,72.30
2023-02-12T01:49:29.447Z,73.01
2023-02-12T01:52:04.904Z,72.41
2023-02-12T01:54:35.875Z,71.63
2023-02-12T01:57:06.427Z,69.06
2023-02-12T01:59:36.565Z,69.71
2023-02-12T02:02:05.066Z,70.59
2023-02-12T02:04:40.133Z,69.96
2023-02-12T02:07:09.783Z,70.35
2023-02-12T02:09:39.085Z,69.71
2023-02-12T02:12:25.485Z,70.00
2023-02-12T02:14:56.532Z,70.04
2023-02-12T02:17:35.470Z,68.86
2023-02-12T02:20:39.771Z,70.29
2023-02-12T02:23:28.588Z,69.87
2023-02-12T02:26:40.262Z,68.87
2023-02-12T02:29:26.652Z,68.85
2023-02-12T02:32:16.841Z,68.40
2023-02-12T02:35:09.181Z,68.51
2023-02-12T02:37:41.483Z,69.25
2023-02-12T02:40:14.286Z,68.70
2023-02-12T02:42:51.415Z,67.93
2023-02-12T02:45:30.768Z,67.39
2023-02-12T02:48:06.767Z,68.92
2023-02-12T02:50:38.746Z,69.61
2023-02-12T02:53:11.994Z,70.68
2023-02-12T02:55:46.244Z,70.42
2023-02-12T02:58:20.748Z,69.95
2023-02-12T03:01:02.000Z,69.43
2023-02-12T03:03:44.675Z,68.36
2023-02-12T03:06:42.085Z,68.74
2023-02-12T03:09:27.428Z,68.61
2023-02-12T03:11:59.011Z,68.81
2023-02-12T03:14:32.251Z,68.06
2023-02-12T03:17:21.005Z,68.96
2023-02-12T03:19:58.420Z,69.71
2023-02-12T03:22:31.473Z,68.58
2023-02-12T03:25:14.050Z,68.34
2023-02-12T03:27:57.338Z,67.42
2023-02-12T03:30:33.974Z,68.46
2023-02-12T03:33:19.573Z,68.23
2023-02-12T03:35:57.684Z,69.13
2023-02-12T03:38:54.862Z,68.44
2023-02-12T03:41:32.070Z,68.59
2023-02-12T03:44:15.577Z,68.50
2023-02-12T03:47:10.165Z,68.92
2023-02-12T03:49:51.052Z,68.05
2023-02-12T03:52:18.200Z,67.81
2023-02-12T03:54:45.941Z,68.52
2023-02-12T03:57:21.511Z,69.35
2023-02-12T03:59:49.788Z,69.31
2023-02-12T04:02:18.925Z,70.25
2023-02-12T04:04:47.584Z,70.30
2023-02-12T04:07:16.359Z,69.62
2023-02-12T04:09:44.016Z,69.03
2023-02-12T04:12:44.352Z,70.27
2023-02-12T04:15:20.232Z,70.52
2023-02-12T04:18:14.928Z,70.23
2023-02-12T04:20:50.736Z,69.69
2023-02-12T04:24:05.403Z,69.87
2023-02-12T04:27:02.063Z,70.47
2023-02-12T04:30:09.675Z,71.19
2023-02-12T04:32:41.415Z,69.65
2023-02-12T04:35:34.857Z,69.03
2023-02-12T04:38:26.740Z,68.75
2023-02-12T04:40:53.970Z,68.87
2023-02-12T04:43:35.349Z,70.65
2023-02-12T04:46:08.324Z,71.32
2023-02-12T04:48:39.844Z,70.89
2023-02-12T04:51:06.943Z,69.65
2023-02-12T04:53:34.007Z,68.53
2023-02-12T04:56:01.075Z,68.38
2023-02-12T04:58:28.161Z,67.23
2023-02-12T05:00:59.301Z,67.42
2023-02-12T05:03:26.397Z,67.83
2023-02-12T05:05:53.648Z,65.65
2023-02-12T05:08:20.784Z,65.50
2023-02-12T05:10:47.905Z,67.54
2023-02-12T05:13:14.962Z,69.38
2023-02-12T05:15:42.094Z,69.91
2023-02-12T05:18:09.205Z,70.79
2023-02-12T05:20:36.290Z,70.57
2023-02-12T05:23:03.510Z,71.52
2023-02-12T05:25:31.915Z,71.14
2023-02-12T05:27:59.133Z,70.94
2023-02-12T05:30:26.221Z,71.35
2023-02-12T05:32:53.280Z,70.58
2023-02-12T05:35:20.461Z,70.03
2023-02-12T05:37:47.581Z,68.47
2023-02-12T05:40:15.150Z,68.01
2023-02-12T05:42:42.233Z,68.73
2023-02-12T05:45:09.599Z,69.15
2023-02-12T05:47:36.769Z,70.00
2023-02-12T05:50:04.080Z,70.81
2023-02-12T05:52:31.159Z,69.59
2023-02-12T05:54:58.261Z,70.63
2023-02-12T05:57:25.424Z,69.78
2023-02-12T05:59:52.593Z,70.26
2023-02-12T06:02:19.732Z,70.14
2023-02-12T06:04:48.573Z,71.70
2023-02-12T06:07:15.877Z,72.74
2023-02-12T06:09:42.992Z,72.73
2023-02-12T06:12:10.066Z,72.22
2023-02-12T06:14:37.185Z,71.95
2023-02-12T06:17:04.233Z,71.44
2023-02-12T06:19:31.331Z,71.08
2023-02-12T06:21:58.420Z,69.43
2023-02-12T06:24:25.756Z,69.33
2023-02-12T06:26:52.850Z,69.56
2023-02-12T06:29:20.379Z,70.70
2023-02-12T06:31:48.111Z,70.83
2023-02-12T06:34:18.875Z,71.12
2023-02-12T06:36:47.283Z,70.95
2023-02-12T06:39:16.443Z,70.61
2023-02-12T06:41:44.576Z,69.76
2023-02-12T06:44:12.673Z,71.92
2023-02-12T06:46:39.833Z,72.13
2023-02-12T06:49:07.151Z,72.45
2023-02-12T06:51:36.337Z,72.46
2023-02-12T06:54:03.495Z,71.33
2023-02-12T06:56:30.554Z,72.05
2023-02-12T06:59:01.085Z,71.68
2023-02-12T07:01:29.821Z,70.76
2023-02-12T07:03:59.987Z,70.71
2023-02-12T07:06:29.332Z,70.51
2023-02-12T07:08:56.949Z,69.81
2023-02-12T07:11:29.322Z,69.18
2023-02-12T07:13:56.413Z,70.11
2023-02-12T07:16:23.799Z,70.61
2023-02-12T07:18:51.129Z,71.43
2023-02-12T07:21:18.592Z,71.72
2023-02-12T07:23:51.992Z,70.92
2023-02-12T07:26:20.766Z,69.72
2023-02-12T07:28:48.442Z,68.99
2023-02-12T07:31:18.731Z,68.31
2023-02-12T07:33:46.685Z,67.63
2023-02-12T07:36:17.880Z,67.59
2023-02-12T07:38:45.311Z,68.26
2023-02-12T07:41:13.629Z,66.87
2023-02-12T07:43:42.141Z,67.06
2023-02-12T07:46:17.043Z,67.26
2023-02-12T07:48:45.210Z,67.53
2023-02-12T07:51:16.834Z,65.09
2023-02-12T07:53:43.925Z,63.39
2023-02-12T07:56:14.302Z,62.28
2023-02-12T07:58:44.965Z,60.88
2023-02-12T08:01:22.365Z,59.90
2023-02-12T08:03:50.728Z,62.65
2023-02-12T08:06:22.877Z,63.15
2023-02-12T08:08:58.941Z,57.04
2023-02-12T08:11:27.675Z,57.15
2023-02-12T08:13:55.393Z,57.59
2023-02-12T08:16:24.711Z,56.72
2023-02-12T08:18:52.880Z,54.91
2023-02-12T08:21:22.976Z,53.98
2023-02-12T08:23:50.864Z,51.96
2023-02-12T08:26:19.305Z,50.44
2023-02-12T08:29:04.210Z,50.43
2023-02-12T08:31:34.275Z,49.95
2023-02-12T08:34:01.993Z,49.53
2023-02-12T08:36:38.359Z,49.57
2023-02-12T08:39:07.473Z,48.62
2023-02-12T08:41:35.250Z,47.24
2023-02-12T08:44:04.199Z,47.40
2023-02-12T08:46:36.570Z,47.62
2023-02-12T08:49:06.941Z,47.69
2023-02-12T08:51:36.292Z,45.98
2023-02-12T08:54:06.287Z,44.89
2023-02-12T08:56:35.187Z,46.32
2023-02-12T08:59:04.905Z,45.91
2023-02-12T09:01:34.014Z,45.65
2023-02-12T09:04:01.563Z,45.10
2023-02-12T09:06:28.611Z,45.22
2023-02-12T09:08:55.786Z,44.20
2023-02-12T09:11:30.644Z,45.02
2023-02-12T09:14:01.017Z,44.35
2023-02-12T09:16:29.938Z,43.87
2023-02-12T09:18:57.664Z,43.94
2023-02-12T09:21:25.221Z,44.25
2023-02-12T09:23:53.159Z,43.54
2023-02-12T09:26:23.017Z,42.93
2023-02-12T09:28:51.300Z,42.31
2023-02-12T09:31:26.454Z,42.58
2023-02-12T09:33:57.696Z,42.76
2023-02-12T09:36:25.437Z,41.48
2023-02-12T09:38:54.147Z,43.25
2023-02-12T09:41:23.890Z,42.91
2023-02-12T09:43:58.466Z,43.22
2023-02-12T09:47:00.172Z,43.75
2023-02-12T09:49:45.643Z,40.10
2023-02-12T09:52:30.873Z,40.13
2023-02-12T09:54:58.914Z,40.59
2023-02-12T09:57:31.277Z,41.14
2023-02-12T10:00:02.934Z,39.52
2023-02-12T10:02:34.878Z,38.34
2023-02-12T10:05:02.762Z,38.38
2023-02-12T10:08:04.711Z,37.99
2023-02-12T10:10:43.802Z,38.04
2023-02-12T10:13:40.229Z,37.57
2023-02-12T10:16:16.156Z,38.28
2023-02-12T10:18:51.988Z,38.38
2023-02-12T10:21:42.393Z,38.95
2023-02-12T10:24:18.256Z,38.42
2023-02-12T10:26:49.999Z,39.72
2023-02-12T10:29:28.882Z,39.67
2023-02-12T10:32:07.693Z,38.77
2023-02-12T10:34:37.126Z,38.24
2023-02-12T10:37:16.252Z,39.19
2023-02-12T10:39:50.482Z,38.90
2023-02-12T10:42:45.445Z,38.72
2023-02-12T10:45:25.212Z,37.84
2023-02-12T10:48:01.847Z,37.76
2023-02-12T10:50:41.575Z,38.32
2023-02-12T10:53:17.545Z,37.86
2023-02-12T10:55:44.636Z,38.41
2023-02-12T10:58:21.939Z,39.00
2023-02-12T11:01:00.130Z,38.24
2023-02-12T11:03:34.927Z,37.27
2023-02-12T11:06:20.365Z,36.44
2023-02-12T11:08:47.711Z,37.25
2023-02-12T11:11:27.196Z,37.48
2023-02-12T11:14:03.044Z,37.46
2023-02-12T11:16:33.212Z,36.03
2023-02-12T11:19:06.297Z,34.07
2023-02-12T11:21:34.660Z,33.43
2023-02-12T11:24:32.627Z,34.12
2023-02-12T11:27:21.592Z,35.04
2023-02-12T11:30:12.052Z,34.58
2023-02-12T11:32:39.324Z,33.55
2023-02-12T11:35:13.551Z,33.01
2023-02-12T11:37:43.537Z,33.53
2023-02-12T11:40:22.629Z,33.79
2023-02-12T11:43:02.396Z,32.36
2023-02-12T11:45:52.468Z,32.82
2023-02-12T11:48:24.768Z,32.85
2023-02-12T11:50:54.763Z,32.56
2023-02-12T11:53:34.297Z,32.04
2023-02-12T11:56:10.390Z,32.74
2023-02-12T11:58:38.577Z,32.74
2023-02-12T12:01:12.724Z,32.47
2023-02-12T12:03:58.473Z,31.88
2023-02-12T12:06:37.968Z,31.90
2023-02-12T12:09:26.803Z,31.94
2023-02-12T12:12:09.024Z,32.11
2023-02-12T12:15:15.811Z,32.72
2023-02-12T12:18:07.350Z,33.01
2023-02-12T12:20:45.111Z,33.34
2023-02-12T12:23:34.787Z,33.42
2023-02-12T12:26:09.483Z,33.72
2023-02-12T12:29:11.481Z,34.78
2023-02-12T12:31:42.740Z,34.38
2023-02-12T12:34:11.568Z,35.46
2023-02-12T12:36:57.397Z,34.76
2023-02-12T12:39:27.191Z,36.55
2023-02-12T12:42:28.210Z,36.82
2023-02-12T12:45:10.386Z,36.51
2023-02-12T12:47:49.452Z,34.82
2023-02-12T12:50:35.430Z,35.01
2023-02-12T12:53:24.532Z,35.55
2023-02-12T12:56:24.964Z,36.10
2023-02-12T12:59:27.131Z,35.25
2023-02-12T13:02:28.023Z,35.77
2023-02-12T13:05:13.798Z,35.73
2023-02-12T13:07:46.972Z,35.91
2023-02-12T13:10:23.366Z,36.12
2023-02-12T13:13:06.796Z,36.20
2023-02-12T13:15:46.589Z,35.83
2023-02-12T13:18:50.117Z,35.95
2023-02-12T13:21:35.742Z,36.05
2023-02-12T13:24:04.793Z,35.17
2023-02-12T13:26:43.717Z,34.50
2023-02-12T13:29:20.433Z,34.86
2023-02-12T13:31:57.984Z,35.41
2023-02-12T13:34:29.592Z,34.62
2023-02-12T13:36:58.709Z,35.11
2023-02-12T13:39:52.977Z,35.93
2023-02-12T13:42:47.539Z,35.47
2023-02-12T13:45:36.675Z,35.83
2023-02-12T13:48:35.189Z,34.89
2023-02-12T13:51:14.233Z,34.62
2023-02-12T13:53:47.135Z,34.32
2023-02-12T13:56:34.907Z,34.80
2023-02-12T13:59:02.311Z,35.99
2023-02-12T14:01:49.245Z,36.58
2023-02-12T14:04:37.628Z,36.60
2023-02-12T14:07:07.731Z,36.95
2023-02-12T14:09:49.792Z,35.97
2023-02-12T14:12:30.391Z,36.53
2023-02-12T14:15:09.754Z,36.10
2023-02-12T14:17:36.858Z,35.37
2023-02-12T14:20:06.833Z,36.80
2023-02-12T14:22:33.925Z,37.62
2023-02-12T14:25:21.750Z,36.86
2023-02-12T14:27:52.667Z,37.37
2023-02-12T14:30:39.024Z,37.31
2023-02-12T14:33:08.269Z,36.24
2023-02-12T14:35:36.801Z,35.84
2023-02-12T14:38:47.764Z,35.76
2023-02-12T14:41:37.341Z,34.53
2023-02-12T14:44:29.404Z,34.93
2023-02-12T14:46:58.838Z,34.87
2023-02-12T14:49:27.586Z,35.66
2023-02-12T14:52:07.594Z,35.26
2023-02-12T14:54:41.403Z,35.06
2023-02-12T14:57:19.260Z,34.49
2023-02-12T14:59:48.451Z,34.82
2023-02-12T15:02:27.822Z,33.63
2023-02-12T15:05:01.376Z,33.90
2023-02-12T15:07:41.033Z,34.56
2023-02-12T15:10:19.535Z,34.77
2023-02-12T15:13:16.065Z,33.58
2023-02-12T15:15:50.944Z,33.07
2023-02-12T15:18:28.196Z,33.78
2023-02-12T15:21:20.717Z,34.82
2023-02-12T15:24:00.425Z,35.92
2023-02-12T15:26:29.313Z,35.89
2023-02-12T15:28:56.455Z,35.25
2023-02-12T15:31:29.258Z,35.10
2023-02-12T15:33:59.197Z,36.21
2023-02-12T15:36:29.406Z,37.44
2023-02-12T15:39:01.531Z,38.69
2023-02-12T15:41:36.846Z,39.63
2023-02-12T15:44:31.206Z,40.31
2023-02-12T15:47:01.025Z,41.36
2023-02-12T15:49:33.876Z,41.63
2023-02-12T15:52:07.191Z,41.61
2023-02-12T15:54:35.386Z,42.30
2023-02-12T15:57:10.261Z,43.51
2023-02-12T15:59:37.897Z,43.56
2023-02-12T16:02:18.588Z,44.02
2023-02-12T16:04:46.021Z,44.50
2023-02-12T16:07:14.871Z,45.23
2023-02-12T16:09:43.152Z,46.16
2023-02-12T16:12:15.397Z,46.59
2023-02-12T16:14:47.919Z,47.33
2023-02-12T16:17:33.112Z,48.29
2023-02-12T16:20:22.004Z,49.18
2023-02-12T16:22:51.381Z,49.60
2023-02-12T16:25:28.527Z,50.69
2023-02-12T16:28:02.922Z,51.40
2023-02-12T16:30:31.835Z,51.81
2023-02-12T16:32:59.940Z,52.41
2023-02-12T16:35:32.756Z,53.01
2023-02-12T16:38:39.076Z,53.63
2023-02-12T16:41:18.109Z,54.38
2023-02-12T16:44:01.241Z,54.69
2023-02-12T16:46:31.698Z,55.36
2023-02-12T16:49:01.253Z,55.39
2023-02-12T16:51:31.933Z,56.00
2023-02-12T16:54:01.541Z,56.74
2023-02-12T16:56:37.797Z,56.91
2023-02-12T16:59:05.033Z,57.38
2023-02-12T17:01:36.444Z,57.70
2023-02-12T17:04:13.313Z,58.52
2023-02-12T17:06:40.434Z,58.47
2023-02-12T17:09:07.600Z,59.06
2023-02-12T17:11:34.722Z,59.66
2023-02-12T17:14:01.813Z,59.94
2023-02-12T17:16:31.368Z,60.11
2023-02-12T17:19:00.041Z,60.52
2023-02-12T17:21:31.853Z,60.89
2023-02-12T17:23:59.125Z,60.30
2023-02-12T17:26:26.233Z,60.98
2023-02-12T17:28:53.342Z,61.17
2023-02-12T17:31:20.794Z,61.63
2023-02-12T17:33:48.150Z,61.35
2023-02-12T17:36:15.240Z,62.31
2023-02-12T17:38:42.327Z,62.44
2023-02-12T17:41:10.921Z,62.98
2023-02-12T17:43:38.463Z,62.22
2023-02-12T17:46:11.260Z,62.26
2023-02-12T17:48:38.514Z,61.51
2023-02-12T17:51:06.042Z,62.58
2023-02-12T17:53:33.129Z,62.72
2023-02-12T17:56:00.446Z,63.17
2023-02-12T17:58:27.670Z,63.12
2023-02-12T18:00:55.857Z,63.25
2023-02-12T18:03:23.324Z,63.19
2023-02-12T18:05:50.406Z,63.56
2023-02-12T18:08:17.651Z,63.69
2023-02-12T18:10:45.144Z,63.48
2023-02-12T18:13:13.958Z,64.30
2023-02-12T18:15:41.399Z,63.66
2023-02-12T18:18:09.301Z,63.59
2023-02-12T18:20:36.560Z,64.05
2023-02-12T18:23:04.511Z,63.78
2023-02-12T18:25:31.572Z,63.57
2023-02-12T18:28:01.222Z,64.05
2023-02-12T18:30:28.662Z,63.99
2023-02-12T18:32:55.780Z,63.85
2023-02-12T18:35:22.847Z,64.14
2023-02-12T18:37:50.436Z,63.91
2023-02-12T18:40:17.659Z,64.59
2023-02-12T18:42:45.030Z,64.55
2023-02-12T18:45:12.228Z,65.28
2023-02-12T18:47:39.345Z,65.21
2023-02-12T18:50:07.073Z,65.89
2023-02-12T18:52:34.200Z,66.37
2023-02-12T18:55:01.265Z,66.46
2023-02-12T18:57:29.614Z,66.93
2023-02-12T18:59:56.860Z,67.34
2023-02-12T19:02:24.188Z,66.93
2023-02-12T19:04:51.390Z,66.88
2023-02-12T19:07:18.525Z,67.26
2023-02-12T19:09:45.850Z,67.65
2023-02-12T19:12:12.984Z,67.84
2023-02-12T19:14:40.048Z,68.11
2023-02-12T19:17:07.110Z,69.01
2023-02-12T19:19:34.283Z,69.11
2023-02-12T19:22:01.389Z,69.13
2023-02-12T19:24:40.889Z,69.70
2023-02-12T19:27:11.758Z,69.31
2023-02-12T19:29:38.837Z,70.13
2023-02-12T19:32:05.994Z,70.58
2023-02-12T19:34:33.126Z,70.70
2023-02-12T19:37:00.185Z,71.48
2023-02-12T19:39:27.576Z,71.72
2023-02-12T19:41:56.154Z,72.18
2023-02-12T19:44:24.996Z,72.80
2023-02-12T19:46:52.646Z,72.67
2023-02-12T19:49:25.912Z,73.01
2023-02-12T19:51:53.664Z,72.60
2023-02-12T19:54:22.976Z,72.39
2023-02-12T19:56:51.720Z,73.15
2023-02-12T19:59:21.529Z,73.71
2023-02-12T20:01:49.685Z,73.48
2023-02-12T20:04:20.139Z,73.83
2023-02-12T20:06:50.779Z,74.27
2023-02-12T20:09:19.441Z,74.17
2023-02-12T20:11:46.846Z,74.19
2023-02-12T20:14:14.500Z,74.46
2023-02-12T20:16:43.758Z,74.57
2023-02-12T20:19:13.006Z,74.94
2023-02-12T20:21:40.731Z,75.29
2023-02-12T20:24:08.161Z,75.87
2023-02-12T20:26:35.731Z,75.95
2023-02-12T20:29:05.197Z,75.96
2023-02-12T20:31:36.051Z,76.12
2023-02-12T20:34:10.809Z,76.22
2023-02-12T20:36:39.789Z,76.59
2023-02-12T20:39:09.660Z,76.67
2023-02-12T20:41:37.235Z,76.53
2023-02-12T20:44:07.681Z,76.20
2023-02-12T20:46:39.531Z,76.29
2023-02-12T20:49:06.845Z,76.67
2023-02-12T20:51:34.342Z,76.81
2023-02-12T20:54:02.587Z,77.18
2023-02-12T20:56:32.112Z,77.65
2023-02-12T20:59:00.108Z,77.60
2023-02-12T21:01:34.565Z,77.44
2023-02-12T21:04:05.109Z,77.81
2023-02-12T21:06:32.955Z,78.58
2023-02-12T21:09:00.068Z,79.17
2023-02-12T21:11:28.701Z,79.50
2023-02-12T21:13:59.336Z,78.93
2023-02-12T21:16:32.333Z,79.63
2023-02-12T21:18:59.776Z,79.55
2023-02-12T21:21:29.745Z,79.68
2023-02-12T21:23:58.257Z,80.44
2023-02-12T21:26:27.007Z,79.95
2023-02-12T21:28:56.352Z,79.91
2023-02-12T21:31:29.305Z,80.24
2023-02-12T21:33:58.252Z,79.54
2023-02-12T21:36:28.352Z,80.04
2023-02-12T21:38:55.779Z,80.58
2023-02-12T21:41:28.428Z,79.80
2023-02-12T21:44:10.096Z,80.68
2023-02-12T21:46:37.539Z,80.94
2023-02-12T21:49:05.133Z,81.25
2023-02-12T21:51:37.924Z,80.73
2023-02-12T21:54:10.664Z,80.71
2023-02-12T21:56:40.173Z,82.35
2023-02-12T21:59:08.626Z,81.95
2023-02-12T22:01:38.104Z,81.72
2023-02-12T22:04:06.767Z,81.42
2023-02-12T22:06:40.844Z,82.23
2023-02-12T22:09:09.382Z,81.91
2023-02-12T22:11:37.675Z,83.31
2023-02-12T22:14:07.158Z,82.88
2023-02-12T22:16:35.863Z,83.64
2023-02-12T22:19:03.944Z,83.33
2023-02-12T22:21:34.264Z,83.89
2023-02-12T22:24:03.260Z,83.15
2023-02-12T22:26:31.828Z,83.38
2023-02-12T22:29:02.293Z,84.13
2023-02-12T22:31:32.261Z,83.53
2023-02-12T22:34:08.393Z,83.41
2023-02-12T22:36:36.798Z,84.12
2023-02-12T22:39:05.037Z,83.62
2023-02-12T22:41:32.361Z,83.58
2023-02-12T22:44:00.850Z,84.72
2023-02-12T22:46:28.130Z,84.68
2023-02-12T22:48:55.406Z,84.69
2023-02-12T22:51:25.597Z,84.66
2023-02-12T22:53:53.024Z,85.22
2023-02-12T22:56:20.434Z,85.95
2023-02-12T22:58:48.047Z,85.35
2023-02-12T23:01:18.369Z,85.65
2023-02-12T23:03:45.996Z,86.21
2023-02-12T23:06:15.513Z,86.47
2023-02-12T23:08:43.263Z,87.07
2023-02-12T23:11:11.195Z,87.43
2023-02-12T23:13:38.628Z,87.10
2023-02-12T23:16:05.842Z,87.79
2023-02-12T23:18:33.337Z,87.77
2023-02-12T23:21:01.330Z,88.20
2023-02-12T23:23:28.683Z,88.25
2023-02-12T23:25:56.249Z,88.26
2023-02-12T23:28:23.668Z,88.87
2023-02-12T23:30:52.061Z,89.62
2023-02-12T23:33:20.185Z,89.80
2023-02-12T23:35:48.230Z,90.24
2023-02-12T23:38:15.927Z,89.88
2023-02-12T23:40:43.643Z,89.94
2023-02-12T23:43:11.004Z,89.21
2023-02-12T23:45:38.289Z,89.63
2023-02-12T23:48:05.670Z,90.22
2023-02-12T23:50:32.822Z,90.38
2023-02-12T23:53:00.046Z,90.40
2023-02-12T23:55:27.211Z,90.21
2023-02-12T23:57:54.399Z,90.15
